Kenilworth, Utah
Current Conditions -  °F | °C
As of 5:53 AM on Thursday 23 Oct 2014 (Local Time) from KPUC Reporting Station
Clear Clear  
Wind Chill: 39°   Ceiling: Unl
Heat Index: 42°   Visibility: 10mi
Dew Point: 29°   Wind: 5mph
Humidity: 60%   Direction: 50°NE
Pressure: 30.22"   Gusts: NA
Location:  39.69°N, 110.8°W
Report Text: KPUC 231153Z AUTO 05004KT 10SM CLR 06/M02 A3022 RMK AO2 SLP209 T00561017 10083 20050 55003 TSNO
Loading
Personal Weather Stations






























Interactive Weather Map
Tropical Storm Tracking
New forecast layout! Learn more

10-Day Weather Forecast

Advertisements
Track Severe Weather on mobile